createdAt,value
2022-12-31T00:01:51.155Z,1.20
2022-12-31T00:06:42.969Z,0.90
2022-12-31T00:11:36.221Z,1.05
2022-12-31T00:16:32.451Z,0.90
2022-12-31T00:21:24.285Z,1.25
2022-12-31T00:26:19.222Z,1.13
2022-12-31T00:31:17.582Z,0.70
2022-12-31T00:36:12.102Z,0.65
2022-12-31T00:41:04.426Z,0.65
2022-12-31T00:45:56.122Z,0.60
2022-12-31T00:50:47.932Z,0.60
2022-12-31T00:55:39.610Z,0.82
2022-12-31T01:00:31.315Z,0.75
2022-12-31T01:05:22.993Z,0.63
2022-12-31T01:10:34.723Z,1.08
2022-12-31T01:15:26.457Z,0.75
2022-12-31T01:20:18.317Z,0.70
2022-12-31T01:25:10.076Z,0.63
2022-12-31T01:30:01.734Z,0.60
2022-12-31T01:34:53.520Z,2.35
2022-12-31T01:39:45.237Z,0.80
2022-12-31T01:44:39.661Z,0.63
2022-12-31T01:49:40.642Z,0.85
2022-12-31T01:54:37.740Z,0.85
2022-12-31T01:59:30.463Z,0.60
2022-12-31T02:04:25.182Z,0.60
2022-12-31T02:09:16.847Z,0.60
2022-12-31T02:14:16.579Z,1.23
2022-12-31T02:19:45.117Z,0.60
2022-12-31T02:25:06.127Z,0.60
2022-12-31T02:30:17.095Z,0.90
2022-12-31T02:35:29.030Z,0.73
2022-12-31T02:40:22.929Z,0.90
2022-12-31T02:45:19.451Z,0.73
2022-12-31T02:50:11.093Z,0.45
2022-12-31T02:55:38.335Z,0.30
2022-12-31T03:00:52.188Z,0.35
2022-12-31T03:05:46.639Z,0.88
2022-12-31T03:10:38.272Z,0.30
2022-12-31T03:15:32.398Z,0.40
2022-12-31T03:21:09.305Z,0.40
2022-12-31T03:26:01.816Z,0.40
2022-12-31T03:30:57.316Z,0.40
2022-12-31T03:35:49.964Z,0.30
2022-12-31T03:40:48.935Z,0.35
2022-12-31T03:45:40.987Z,0.40
2022-12-31T03:50:33.235Z,0.85
2022-12-31T03:55:25.397Z,0.30
2022-12-31T04:00:19.883Z,0.77
2022-12-31T04:05:11.950Z,0.40
2022-12-31T04:10:06.041Z,0.80
2022-12-31T04:14:58.210Z,0.77
2022-12-31T04:19:49.892Z,0.40
2022-12-31T04:24:43.041Z,0.40
2022-12-31T04:29:35.276Z,0.30
2022-12-31T04:34:26.975Z,0.70
2022-12-31T04:39:18.740Z,0.30
2022-12-31T04:44:10.525Z,0.50
2022-12-31T04:49:02.452Z,0.40
2022-12-31T04:53:54.698Z,0.30
2022-12-31T04:58:46.475Z,0.57
2022-12-31T05:03:38.913Z,0.40
2022-12-31T05:08:31.346Z,0.30
2022-12-31T05:13:26.823Z,0.38
2022-12-31T05:18:23.569Z,0.30
2022-12-31T05:23:17.079Z,0.30
2022-12-31T05:28:08.972Z,0.28
2022-12-31T05:33:00.821Z,0.30
2022-12-31T05:37:52.524Z,0.60
2022-12-31T05:42:44.442Z,0.30
2022-12-31T05:47:36.098Z,0.30
2022-12-31T05:52:27.687Z,0.30
2022-12-31T05:57:19.310Z,0.30
2022-12-31T06:02:10.902Z,0.25
2022-12-31T06:07:02.657Z,0.10
2022-12-31T06:11:54.227Z,0.20
2022-12-31T06:16:45.907Z,0.20
2022-12-31T06:21:37.611Z,0.20
2022-12-31T06:26:29.296Z,0.20
2022-12-31T06:31:20.965Z,0.10
2022-12-31T06:36:14.556Z,0.35
2022-12-31T06:41:12.225Z,0.10
2022-12-31T06:46:09.019Z,0.20
2022-12-31T06:51:15.015Z,0.20
2022-12-31T06:56:14.614Z,0.20
2022-12-31T07:01:24.384Z,0.30
2022-12-31T07:06:31.506Z,0.20
2022-12-31T07:11:38.673Z,0.30
2022-12-31T07:16:49.312Z,0.40
2022-12-31T07:21:41.965Z,0.30
2022-12-31T07:26:56.509Z,0.68
2022-12-31T07:32:22.147Z,0.50
2022-12-31T07:37:42.590Z,0.32
2022-12-31T07:42:53.778Z,0.45
2022-12-31T07:47:45.750Z,0.30
2022-12-31T07:52:37.823Z,0.30
2022-12-31T07:57:37.053Z,0.40
2022-12-31T08:02:28.748Z,0.40
2022-12-31T08:07:36.690Z,0.60
2022-12-31T08:12:34.195Z,0.77
2022-12-31T08:17:26.128Z,0.60
2022-12-31T08:22:39.266Z,0.50
2022-12-31T08:27:46.174Z,0.40
2022-12-31T08:32:46.604Z,0.50
2022-12-31T08:38:16.810Z,0.40
2022-12-31T08:43:11.343Z,0.50
2022-12-31T08:48:21.221Z,0.50
2022-12-31T08:53:13.084Z,0.43
2022-12-31T08:58:29.731Z,0.60
2022-12-31T09:03:43.743Z,0.40
2022-12-31T09:08:58.673Z,0.50
2022-12-31T09:14:14.840Z,1.00
2022-12-31T09:19:08.549Z,0.30
2022-12-31T09:24:05.868Z,0.30
2022-12-31T09:29:18.671Z,0.20
2022-12-31T09:34:18.637Z,0.20
2022-12-31T09:39:16.383Z,0.40
2022-12-31T09:44:44.805Z,0.38
2022-12-31T09:49:48.644Z,0.37
2022-12-31T09:55:09.522Z,0.20
2022-12-31T10:00:20.280Z,0.40
2022-12-31T10:05:36.607Z,0.22
2022-12-31T10:10:40.004Z,0.60
2022-12-31T10:15:41.789Z,0.57
2022-12-31T10:20:45.751Z,0.30
2022-12-31T10:26:06.165Z,0.20
2022-12-31T10:31:28.091Z,0.10
2022-12-31T10:36:32.441Z,0.00
2022-12-31T10:42:04.029Z,0.20
2022-12-31T10:47:07.784Z,0.00
2022-12-31T10:52:21.105Z,0.08
2022-12-31T10:57:43.628Z,0.00
2022-12-31T11:03:06.425Z,0.00
2022-12-31T11:08:27.358Z,0.00
2022-12-31T11:13:53.300Z,0.00
2022-12-31T11:18:48.801Z,0.00
2022-12-31T11:23:58.386Z,0.28
2022-12-31T11:29:05.127Z,0.25
2022-12-31T11:34:18.346Z,0.50
2022-12-31T11:39:31.332Z,0.88
2022-12-31T11:44:44.928Z,0.57
2022-12-31T11:49:39.428Z,0.68
2022-12-31T11:54:33.922Z,0.85
2022-12-31T11:59:25.584Z,0.70
2022-12-31T12:04:17.451Z,2.72
2022-12-31T12:09:16.144Z,1.20
2022-12-31T12:14:35.374Z,0.73
2022-12-31T12:19:30.628Z,1.70
2022-12-31T12:24:25.249Z,0.98
2022-12-31T12:29:19.743Z,0.93
2022-12-31T12:34:32.679Z,1.95
2022-12-31T12:39:28.796Z,0.70
2022-12-31T12:44:20.485Z,1.00
2022-12-31T12:49:37.706Z,1.10
2022-12-31T12:55:03.478Z,1.65
2022-12-31T13:00:18.668Z,1.02
2022-12-31T13:05:28.277Z,0.77
2022-12-31T13:10:49.637Z,1.23
2022-12-31T13:16:10.260Z,1.85
2022-12-31T13:21:41.876Z,1.20
2022-12-31T13:26:49.193Z,1.65
2022-12-31T13:31:42.389Z,1.13
2022-12-31T13:36:38.813Z,1.20
2022-12-31T13:41:43.693Z,2.00
2022-12-31T13:46:51.481Z,1.45
2022-12-31T13:51:47.065Z,1.60
2022-12-31T13:56:41.083Z,1.08
2022-12-31T14:01:56.147Z,1.33
2022-12-31T14:07:01.405Z,0.82
2022-12-31T14:12:18.005Z,0.60
2022-12-31T14:17:30.940Z,0.50
2022-12-31T14:22:28.322Z,0.50
2022-12-31T14:27:27.646Z,0.60
2022-12-31T14:32:52.032Z,0.85
2022-12-31T14:38:07.105Z,0.60
2022-12-31T14:43:36.223Z,0.80
2022-12-31T14:48:37.005Z,0.82
2022-12-31T14:53:29.743Z,0.40
2022-12-31T14:58:36.022Z,0.60
2022-12-31T15:03:42.925Z,0.50
2022-12-31T15:09:10.919Z,0.70
2022-12-31T15:14:05.564Z,1.00
2022-12-31T15:19:00.458Z,0.70
2022-12-31T15:23:52.299Z,0.75
2022-12-31T15:28:44.025Z,0.50
2022-12-31T15:33:53.131Z,0.73
2022-12-31T15:38:45.675Z,0.57
2022-12-31T15:43:44.008Z,0.75
2022-12-31T15:48:52.060Z,1.65
2022-12-31T15:53:52.944Z,1.00
2022-12-31T15:58:47.686Z,1.10
2022-12-31T16:03:45.119Z,0.85
2022-12-31T16:08:37.811Z,0.70
2022-12-31T16:13:31.957Z,0.68
2022-12-31T16:18:40.287Z,0.65
2022-12-31T16:23:32.832Z,1.35
2022-12-31T16:28:31.417Z,1.00
2022-12-31T16:33:23.214Z,1.10
2022-12-31T16:38:17.613Z,0.90
2022-12-31T16:43:30.180Z,2.38
2022-12-31T16:48:22.004Z,1.30
2022-12-31T16:53:18.468Z,0.90
2022-12-31T16:58:18.328Z,0.90
2022-12-31T17:03:24.156Z,0.80
2022-12-31T17:08:25.156Z,0.80
2022-12-31T17:13:32.411Z,1.05
2022-12-31T17:18:33.163Z,2.10
2022-12-31T17:23:35.383Z,4.18
2022-12-31T17:28:32.197Z,2.70
2022-12-31T17:33:23.904Z,2.25
2022-12-31T17:38:18.536Z,2.10
2022-12-31T17:43:13.820Z,2.72
2022-12-31T17:48:06.125Z,3.30
2022-12-31T17:53:08.857Z,2.03
2022-12-31T17:58:04.023Z,1.55
2022-12-31T18:02:56.018Z,2.38
2022-12-31T18:07:48.386Z,1.30
2022-12-31T18:12:40.571Z,1.38
2022-12-31T18:17:33.722Z,1.48
2022-12-31T18:22:26.235Z,3.25
2022-12-31T18:27:19.647Z,2.13
2022-12-31T18:32:23.377Z,0.80
2022-12-31T18:37:21.459Z,0.60
2022-12-31T18:42:16.762Z,0.90
2022-12-31T18:47:17.531Z,1.00
2022-12-31T18:52:20.720Z,0.60
2022-12-31T18:57:13.872Z,0.90
2022-12-31T19:02:13.863Z,0.70
2022-12-31T19:07:05.842Z,0.60
2022-12-31T19:11:58.233Z,0.70
2022-12-31T19:16:51.076Z,0.90
2022-12-31T19:21:43.436Z,0.60
2022-12-31T19:26:39.634Z,0.60
2022-12-31T19:31:34.940Z,0.82
2022-12-31T19:36:26.627Z,0.73
2022-12-31T19:41:20.284Z,0.57
2022-12-31T19:46:14.122Z,0.52
2022-12-31T19:51:10.259Z,0.50
2022-12-31T19:56:01.980Z,0.47
2022-12-31T20:01:02.051Z,0.40
2022-12-31T20:06:05.976Z,0.28
2022-12-31T20:10:59.002Z,0.25
2022-12-31T20:15:50.844Z,0.63
2022-12-31T20:20:50.355Z,0.73
2022-12-31T20:25:45.362Z,0.47
2022-12-31T20:30:39.819Z,0.68
2022-12-31T20:35:31.527Z,0.90
2022-12-31T20:40:23.203Z,0.20
2022-12-31T20:45:14.937Z,0.10
2022-12-31T20:50:11.973Z,0.10
2022-12-31T20:55:04.642Z,0.20
2022-12-31T20:59:56.324Z,0.30
2022-12-31T21:04:48.189Z,0.20
2022-12-31T21:09:39.907Z,0.30
2022-12-31T21:14:31.542Z,0.13
2022-12-31T21:19:23.226Z,0.20
2022-12-31T21:24:20.178Z,0.20
2022-12-31T21:29:15.128Z,0.40
2022-12-31T21:34:06.832Z,0.20
2022-12-31T21:38:58.542Z,0.80
2022-12-31T21:43:50.222Z,0.90
2022-12-31T21:48:42.137Z,2.15
2022-12-31T21:53:36.892Z,1.45
2022-12-31T21:58:29.513Z,0.50
2022-12-31T22:03:24.324Z,0.40
2022-12-31T22:08:16.299Z,0.30
2022-12-31T22:13:08.152Z,0.60
2022-12-31T22:17:59.971Z,0.60
2022-12-31T22:22:51.689Z,0.43
2022-12-31T22:27:53.130Z,0.20
2022-12-31T22:32:55.194Z,0.13
2022-12-31T22:37:56.867Z,0.00
2022-12-31T22:42:49.696Z,0.00
2022-12-31T22:47:41.371Z,0.10
2022-12-31T22:52:33.081Z,0.10
2022-12-31T22:57:24.752Z,0.10
2022-12-31T23:02:16.547Z,0.00
2022-12-31T23:07:08.323Z,0.00
2022-12-31T23:12:00.611Z,0.15
2022-12-31T23:17:30.436Z,0.10
2022-12-31T23:22:41.472Z,0.20
2022-12-31T23:27:33.168Z,0.10
2022-12-31T23:32:24.835Z,0.20
2022-12-31T23:37:16.487Z,0.28
2022-12-31T23:42:08.904Z,0.20
2022-12-31T23:47:00.622Z,0.22
2022-12-31T23:51:52.359Z,0.22
2022-12-31T23:56:44.265Z,1.30
